This is the latest recevied weather packets stored in our database for station/object DB0LS-15. If no packets are shown the sender has not sent any weather packets the latest 10 day(s).
| Time | Temp. | Humidity | Pressure | Rain* | Wind** | Luminosity | Snow |
|---|---|---|---|---|---|---|---|
| 1777689061 | 11.67° C | 68% | 1007 hPa | 0 mm | - | - | - |
| 1777688458 | 11.67° C | 66% | 1007 hPa | 0 mm | - | - | - |
| 1777687854 | 12.22° C | 65% | 1007 hPa | 0 mm | - | - | - |
| 1777687250 | 12.22° C | 64% | 1007.1 hPa | 0 mm | - | - | - |
| 1777686646 | 12.22° C | 65% | 1007 hPa | 0 mm | - | - | - |
| 1777686042 | 12.22° C | 64% | 1007 hPa | 0 mm | - | - | - |
| 1777685438 | 12.78° C | 62% | 1007.2 hPa | 0 mm | - | - | - |
| 1777684835 | 12.78° C | 63% | 1007.2 hPa | 0 mm | - | - | - |
| 1777684231 | 12.78° C | 63% | 1007.2 hPa | 0 mm | - | - | - |
| 1777683627 | 12.22° C | 64% | 1007.4 hPa | 0 mm | - | - | - |
| 1777683023 | 11.67° C | 66% | 1007.4 hPa | 0 mm | - | - | - |
| 1777682419 | 11.11° C | 67% | 1007.5 hPa | 0 mm | - | - | - |
| 1777681816 | 11.67° C | 64% | 1007.5 hPa | 0 mm | - | - | - |
| 1777681272 | 16.67° C | 46% | 1007.5 hPa | 0 mm | - | - | - |
| 1777680668 | 16.11° C | 47% | 1007.5 hPa | 0 mm | - | - | - |
| 1777680065 | 15° C | 49% | 1007.6 hPa | 0 mm | - | - | - |
| 1777679461 | 15° C | 50% | 1007.6 hPa | 0 mm | - | - | - |
| 1777678857 | 16.67° C | 46% | 1007.6 hPa | 0 mm | - | - | - |
| 1777678253 | 17.22° C | 44% | 1007.6 hPa | 0 mm | - | - | - |
| 1777677649 | 17.22° C | 44% | 1007.7 hPa | 0 mm | - | - | - |
| 1777677046 | 17.78° C | 42% | 1007.6 hPa | 0 mm | - | - | - |
| 1777676442 | 17.22° C | 44% | 1007.7 hPa | 0 mm | - | - | - |
| 1777675838 | 17.78° C | 42% | 1007.7 hPa | 0 mm | - | - | - |
| 1777675235 | 18.33° C | 42% | 1007.8 hPa | 0 mm | - | - | - |
| 1777674631 | 17.78° C | 44% | 1007.7 hPa | 0 mm | - | - | - |
* Rain latest hour (hover to see other rain measurements)
** Current wind speed in m/s (hover to see current wind gust speed)